Database: COMPET-N - COOP - 3PL - 4PL - CNDOOM

WAD: Doom | Doom 2 | TNT | Plutonia | AV | HR | Scythe | MM | MM2 | Requiem | CE
Category: speed | nmare | max | nm100s | tyson | pacifist | fast | respawn | nomo | misc | built | all
Highscore: ALL | IWAD | PWAD | Country | Continent

Remove: wad | map | category | player | all
MapPlayerTimeDateFilenameCommentsDL
MAP04: WormholeDrew DeVore12.002001-10-09ev04-012.zip - 350
E2M7: Spawning VatsDrew DeVore15.002005-04-22e2m7-015.zip - 443
MAP14: GenesisDrew DeVore21.002001-10-15pl14-021.zip - 223
MAP24: DiehardDrew DeVore22.002002-02-28mm24-022.zip - 203
MAP05: The Waste TunnelsDrew DeVore23.002005-04-24lv05-023.zip - 389
MAP01: System ControlDrew DeVore26.002005-10-01ev01-026.zip - 608
MAP05: Ghost TownDrew DeVore27.002001-10-18pl05-027.zip - 331
MAP25: CesspoolDrew DeVore28.002002-02-27mm25-028.zip - 196
MAP05: Ghost TownDrew DeVore29.002001-10-13pl05-029.zip - 244
MAP21: SlayerDrew DeVore34.002001-10-21pl21-034.zip - 201
MAP19: NMEDrew DeVore37.002001-10-20pl19-037.zip - 237
MAP02: Human BBQDrew DeVore38.002005-10-04ev02-038.zip - 385
MAP17: Processing AreaDrew DeVore38.002001-10-07ev17-038.zip - 210
MAP04: CagedDrew DeVore46.002001-10-27pl04-046.zip - 243
MAP07: PrisonDrew DeVore49.002002-10-03ev07-049.zip - 218
MAP02: Well of SoulsDrew DeVore53.002001-10-16pl02-053.zip - 218
MAP11: NemesisDrew DeVore53.002003-05-24av11-053.zip - 185
E1M6: Central ProcessingDrew DeVore56.002013-07-12e1m6-056.zip450
E3M7: Gate To LimboDrew DeVore57.002002-10-06e3m7-057.zip - 256
MAP10: The Black GateDrew DeVore57.002001-10-17rq10-057.zip - 219
MAP10: The Black GateDrew DeVore1:01.002001-10-11rq10-101.zip - 193
MAP10: RedemptionDrew DeVore1:03.002001-10-07ev10-103.zip - 200
MAP05: HangerDrew DeVore1:05.002005-10-10ev05-105.zip - 339
MAP06: Barons LairDrew DeVore1:06.002001-10-13pl06-106.zip - 205
MAP13: Last Look at EdenDrew DeVore1:06.002002-05-01hr13-106.zip - 302
MAP06: Hillside SiegeDrew DeVore1:08.002003-01-12av06-108.zip - 321
MAP22: RubiconDrew DeVore1:10.002003-03-19av22-110.zip - 324
MAP04: RatamahattaDrew DeVore1:12.002002-03-17m204-112.zip - 225
E1M7: Computer StationDrew DeVore1:15.002002-10-13e1m7-115.zip - 442
MAP08: RealmDrew DeVore1:17.002002-09-28pl08-117.zip - 216
MAP29: Fire Walk With MeDrew DeVore1:29.002003-04-02av29-129.zip - 183
MAP05: HangerDrew DeVore1:31.002001-10-09ev05-131.zip - 227
MAP18: MillDrew DeVore1:33.002005-04-24ev18-133.zip - 304
MAP08: RealmDrew DeVore1:35.002001-10-06pl08-135.zip - 1173
MAP23: TombstoneDrew DeVore1:45.002002-02-09pl23-145.zip - 203
MAP23: ShowdownDrew DeVore1:46.002002-05-04mm23-146.zip - 188
MAP14: City in the CloudsDrew DeVore1:47.002002-05-02hr14-147.zip - 194
MAP08: MetalDrew DeVore2:00.002005-10-10ev08-200.zip - 349
MAP20: Central ProcessingDrew DeVore2:39.002002-03-31ev20-239.zip - 319
MAP09: StrongholdDrew DeVore2:41.002005-10-11ev09-241.zip - 334
EP3: Inferno (E3M1 - E3M9)Drew DeVore3:54.002005-03-11ep3-0354.zip - 267
MAP27: Stench of EvilDrew DeVore4:00.002003-04-01av27-400.zip - 319
EP4: Thy Flesh Consumed (E4M1 - E4M9)Drew DeVore4:26.002002-09-19ep4-0426.zip - 225
MAP20: Misri HalekDrew DeVore4:36.002003-05-20av20-436.zip - 204
EP1: Knee-Deep in the Dead (E1M1 - E1M9)Drew DeVore5:00.002005-04-02ep1-0500.zip - 1314
EP1: Episode 1 (MAP01 - MAP10)Drew DeVore6:32.002002-12-020632uv01.zip - 973
EP1: Plutonia Episode 1 (MAP01 - MAP10)Drew DeVore10:38.002002-02-081038pl01.zip - 185
EP2: Plutonia Episode 2 (MAP11 - MAP20)Drew DeVore12:28.002002-02-071228pl11.zip - 198
EP2: TNT Episode 2 (MAP11 - MAP20)Drew DeVore13:30.002002-09-081330ev11.zip - 316
EP3: Plutonia Episode 3 (MAP21 - MAP30)Drew DeVore13:52.002002-02-031352pl21.zip - 185
EP2: TNT Episode 2 (MAP11 - MAP20)Drew DeVore14:51.002002-02-141451ev11.zip - 187
EP3: TNT Episode 3 (MAP21 - MAP30)Drew DeVore15:18.002003-05-081519ev21.zip - 306
EP1: TNT Episode 1 (MAP01 - MAP10)Drew DeVore15:58.002002-08-281558ev01.zip - 320
EP3: TNT Episode 3 (MAP21 - MAP30)Drew DeVore17:35.002002-02-151735ev21.zip - 184
EP1: TNT Episode 1 (MAP01 - MAP10)Drew DeVore19:07.002002-02-141907ev01.zip - 185
EP1: MM Episode 1 (MAP01 - MAP10)Drew DeVore20:13.002002-02-232013mm01.zip - 291
EP2: MM Episode 2 (MAP11 - MAP20)Drew DeVore26:24.002002-02-262624mm11.zip - 286
ALL: Doom 2 Hell On Earth (MAP01 - MAP30)Drew DeVore26:57.002002-12-0630uv2657.zip - 237
EP3: MM Episode 3 (MAP21 - MAP30)Drew DeVore31:11.002002-03-033111mm21.zip - 295
ALL: The Plutonia Experiment (MAP01 - MAP30)Drew DeVore41:11.002002-02-1130pl4111.zip - 235
ALL: The Plutonia Experiment (MAP01 - MAP30)Drew DeVore46:54.002002-02-0530pl4654.zip - 201
ALL: TNT Evilution (MAP01 - MAP30)Drew DeVore55:34.002002-02-1730ev5534.zip - 315
ALL: Memento Mori (MAP01 - MAP30)Drew DeVore1:23:56.002002-03-0730mm8356.zip - 299
Remove: wad | map | category | player | all